WEATHER DATA

YESTERDAY
Time Temp. Dewp. Hum. Wind dir Wind speed Wind gust Bar. 1h Prec. 24h Prec.
00:09 20 14.8 72 0 0.8 1019.5 0.0000 0.0000
00:25 19.9 14.7 72 0 0.3 1019.4 0.0000 0.0000
00:34 19.8 14.8 73 0 0.8 1019.3 0.0000 0.0000
00:44 19.5 14.7 74 270 0.3 0.8 1019.3 0.0000 0.0000
00:55 19.5 14.7 74 315 0.3 0.8 1019.4 0.0000 0.0000
01:05 19.5 14.7 74 0 0.8 1019.3 0.0000 0.0000
01:15 19.3 14.8 75 0 0.3 1019.3 0.0000 0.0000
01:25 19.1 14.6 75 0 0.8 1019.2 0.0000 0.0000
01:35 19 14.7 76 0 0.3 1019.2 0.0000 0.0000
01:45 18.8 14.7 77 0 0.3 1019.1 0.0000 0.0000
01:55 18.8 14.7 77 0 0.3 1019.1 0.0000 0.0000
02:06 18.5 14.4 77 0 0.3 1018.9 0.0000 0.0000
02:15 18.4 14.7 79 0 0.3 1018.8 0.0000 0.0000
02:25 18.3 14.8 80 0 0.8 1018.8 0.0000 0.0000
02:35 18.3 14.8 80 0 0.3 1018.7 0.0000 0.0000
02:46 18.2 14.5 79 0 0.8 1018.6 0.0000 0.0000
02:56 18.1 14.6 80 0 0.3 1018.5 0.0000 0.0000
03:05 18 14.7 81 0 0.3 1018.5 0.0000 0.0000
03:16 18 14.9 82 0 0.8 1018.5 0.0000 0.0000
03:26 18 14.9 82 0 0.3 1018.4 0.0000 0.0000
03:36 17.9 14.6 81 333 0.3 0.8 1018.3 0.0000 0.0000
03:46 17.7 14.6 82 335 0.3 0.8 1018.2 0.0000 0.0000
03:56 17.6 14.5 82 341 0.3 0.8 1018.1 0.0000 0.0000
04:16 17.5 14.6 83 0 0.8 1017.9 0.0000 0.0000
04:27 17.4 14.7 84 0 0.3 1018 0.0000 0.0000
04:37 17.3 14.6 84 0 0.3 1018 0.0000 0.0000
04:46 17.3 14.6 84 0 0.3 1018 0.0000 0.0000
04:56 17.2 14.5 84 0 0.3 1018 0.0000 0.0000
05:07 17.2 14.5 84 0 0.3 1017.9 0.0000 0.0000
05:17 17.1 14.4 84 270 0.3 0.8 1017.8 0.0000 0.0000
05:27 17 14.5 85 0 0.3 1017.9 0.0000 0.0000
05:37 17 14.5 85 0 0.8 1017.9 0.0000 0.0000
05:47 16.9 14.4 85 0 0.8 1017.8 0.0000 0.0000
05:57 16.8 14.4 86 0 0.3 1017.8 0.0000 0.0000
06:07 16.7 14.3 86 315 0.3 0.8 1017.8 0.0000 0.0000
06:18 16.7 14.3 86 333 0.3 0.8 1017.9 0.0000 0.0000
06:27 16.7 14.5 87 0 0.8 1017.9 0.0000 0.0000
06:37 16.7 14.5 87 302 0.3 0.8 1017.9 0.0000 0.0000
06:48 16.7 14.7 88 270 0.3 0.8 1017.9 0.0000 0.0000
06:58 16.8 14.8 88 0 0.8 1018 0.0000 0.0000
07:08 16.9 14.9 88 270 0.3 0.8 1018 0.0000 0.0000
07:18 17.2 15.4 89 270 0.3 0.8 1018.1 0.0000 0.0000
07:34 18.1 16.3 89 270 0.3 0.8 1018 0.0000 0.0000
07:44 18.7 16.5 87 270 0.3 0.8 1018 0.0000 0.0000
07:54 19.3 16.5 84 270 0.3 0.8 1017.9 0.0000 0.0000
08:00 19.5 16.3 82 270 0.3 1.1 1017.9 0.0000 0.0000
08:10 20.1 16.3 79 239 0.3 0.8 1017.9 0.0000 0.0000
08:21 20.4 16.2 77 270 0.3 0.8 1017.8 0.0000 0.0000
08:31 20.7 16.1 75 230 0.3 1.1 1017.8 0.0000 0.0000
08:40 21.1 16.5 75 0 0.3 1017.8 0.0000 0.0000
08:51 21.5 16.2 72 225 0.3 1.1 1017.8 0.0000 0.0000
09:03 22 16.5 71 203 0.3 0.8 1017.8 0.0000 0.0000
09:14 22.5 16.3 68 18 0.3 0.8 1017.7 0.0000 0.0000
09:24 23 16.8 68 270 0.3 0.8 1017.7 0.0000 0.0000
09:33 23.4 17.4 69 0 0.8 1017.6 0.0000 0.0000
09:44 23.9 17.4 67 0 0.8 1017.5 0.0000 0.0000
09:54 24.3 17.5 66 315 0.3 0.8 1017.5 0.0000 0.0000
10:04 24.7 17.4 64 26 0.3 1.1 1017.5 0.0000 0.0000
10:14 25 17.5 63 54 0.3 1.4 1017.3 0.0000 0.0000
10:25 25.2 17.7 63 54 0.3 1.1 1017.4 0.0000 0.0000
10:34 25.5 17.4 61 270 0.3 1.4 1017.3 0.0000 0.0000
10:44 25.7 17.6 61 270 0.3 0.8 1017.2 0.0000 0.0000
10:54 25.9 17.8 61 270 0.3 1.1 1017.3 0.0000 0.0000
11:05 25.6 16.7 58 29 0.3 1.1 1017.2 0.0000 0.0000
11:15 25.7 17.9 62 225 0.3 1.4 1017.2 0.0000 0.0000
11:24 25.9 18.1 62 270 0.3 1.1 1017 0.0000 0.0000
11:35 26 17.6 60 270 0.3 1.4 1017 0.0000 0.0000
11:45 26.2 18.3 62 270 0.3 1.4 1017 0.0000 0.0000
11:55 26.2 17.3 58 0 0.3 1.1 1016.9 0.0000 0.0000
12:05 25.7 18.1 63 13 0.3 2.2 1016.9 0.0000 0.0000
12:15 25.4 18.6 66 45 0.8 1.7 1016.9 0.0000 0.0000
12:25 25.5 18.2 64 51 0.8 2.2 1016.9 0.0000 0.0000
12:30 25.7 18.9 66 45 0.8 2.2 1016.9 0.0000 0.0000
12:40 25.5 18.4 65 45 0.8 1.7 1016.9 0.0000 0.0000
12:51 25.6 18.5 65 29 0.3 1.1 1016.8 0.0000 0.0000
13:01 25.9 18.6 64 45 0.3 1.7 1016.7 0.0000 0.0000
13:11 26 18.4 63 60 0.3 1.1 1016.7 0.0000 0.0000
13:21 26 18.7 64 0.3 0.8 1016.7 0.0000 0.0000
13:32 25.8 18.2 63 225 0.3 0.8 1016.6 0.0000 0.0000
13:42 25.7 18.4 64 236 0.3 1.4 1016.6 0.0000 0.0000
13:51 25.7 18.6 65 237 0.3 1.1 1016.6 0.0000 0.0000
14:02 25.6 18 63 237 0.3 1.4 1016.5 0.0000 0.0000
14:12 25.2 17.7 63 242 0.8 2.8 1016.5 0.0000 0.0000
14:22 25.2 17.7 63 240 0.3 1.4 1016.5 0.0000 0.0000
14:32 25 17.5 63 233 0.3 2.5 1016.5 0.0000 0.0000
14:42 24.8 17.3 63 230 0.3 1.7 1016.4 0.0000 0.0000
14:48 24.8 17.5 64 229 0.3 1.4 1016.4 0.0000 0.0000
14:57 25 17.5 63 225 0.3 1.4 1016.4 0.0000 0.0000
15:07 25 17.5 63 235 0.3 1.4 1016.2 0.0000 0.0000
15:18 25.3 17.8 63 225 0.3 1.4 1016.2 0.0000 0.0000
15:33 25.8 17.7 61 215 0.3 1.1 1016.1 0.0000 0.0000
15:43 26.1 17.7 60 225 0.3 1.4 1016.1 0.0000 0.0000
15:53 26.3 17.9 60 234 0.3 1.7 1016 0.0000 0.0000
16:03 26.4 17.7 59 206 0.3 1.4 1015.9 0.0000 0.0000
16:10 26.4 17.5 58 270 0.3 1.4 1015.9 0.0000 0.0000
16:20 26.4 17.7 59 217 0.3 1.4 1015.8 0.0000 0.0000
16:30 26.2 17.6 59 215 0.3 1.1 1015.8 0.0000 0.0000
16:40 26 17.4 59 235 0.3 1.4 1015.8 0.0000 0.0000
16:50 26 17.6 60 217 0.3 1.4 1015.7 0.0000 0.0000
17:00 26.3 17.9 60 270 0.8 1.7 1015.6 0.0000 0.0000
17:10 26.4 17.7 59 240 0.3 1.4 1015.5 0.0000 0.0000
17:22 26.5 17.8 59 90 0.3 0.8 1015.4 0.0000 0.0000
17:33 26.6 17.9 59 135 0.3 1.4 1015.3 0.0000 0.0000
17:43 26.6 17.9 59 225 0.3 1.7 1015.3 0.0000 0.0000
17:53 26.4 17.7 59 180 0.3 1.4 1015.3 0.0000 0.0000
18:03 26.1 17.5 59 225 0.3 1.4 1015.2 0.0000 0.0000
18:13 25.7 17.1 59 225 0.3 1.1 1015.2 0.0000 0.0000
18:23 25.5 17.4 61 225 0.3 1.4 1015.1 0.0000 0.0000
18:33 25.3 17.5 62 225 0.3 1.1 1015 0.0000 0.0000
18:44 25.1 18.3 66 231 0.3 1.1 1015 0.0000 0.0000
18:54 25 18.9 69 236 0.3 1.4 1014.9 0.0000 0.0000
19:03 24.8 19 70 225 0.3 1.7 1014.8 0.0000 0.0000
19:13 24.8 19.2 71 198 0.3 1.1 1014.7 0.0000 0.0000
19:24 24.8 18.7 69 225 0.3 1.7 1014.8 0.0000 0.0000
19:34 24.5 18.4 69 225 0.3 1.1 1014.8 0.0000 0.0000
19:44 24.1 17.8 68 229 0.3 1.4 1014.5 0.0000 0.0000
19:54 23.7 17.7 69 225 0.3 1.1 1014.4 0.0000 0.0000
20:05 23.4 17.6 70 233 0.3 1.1 1014.5 0.0000 0.0000
20:15 23 17.2 70 219 0.3 1.1 1014.5 0.0000 0.0000
20:25 22.9 17.4 71 239 0.3 0.8 1014.5 0.0000 0.0000
20:35 22.7 17.4 72 270 0.3 0.8 1014.4 0.0000 0.0000
20:46 22.5 17 71 270 0.3 1.1 1014.4 0.0000 0.0000
20:55 22.3 16.8 71 225 0.3 1.1 1014.3 0.0000 0.0000
21:05 22.1 16.6 71 232 0.3 1.7 1014.4 0.0000 0.0000
21:16 21.9 16.2 70 270 0.3 1.1 1014.4 0.0000 0.0000
21:26 21.7 16.2 71 270 0.3 0.8 1014.4 0.0000 0.0000
21:36 21.6 16.1 71 270 0.3 1.4 1014.4 0.0000 0.0000
21:46 21.4 16.1 72 270 0.3 0.8 1014.4 0.0000 0.0000
21:56 21.3 16.1 72 270 0.3 1.1 1014.3 0.0000 0.0000
22:06 21.1 15.9 72 270 0.3 1.4 1014.3 0.0000 0.0000
22:16 21 15.8 72 270 0.3 0.8 1014.4 0.0000 0.0000
22:27 20.9 15.7 72 230 0.3 1.1 1014.3 0.0000 0.0000
22:46 20.7 15.9 74 270 0.3 0.8 1014.3 0.0000 0.0000
22:56 20.6 16 75 270 0.3 0.8 1014.2 0.0000 0.0000
23:07 20.6 16 75 270 0.3 0.8 1014.1 0.0000 0.0000
23:17 20.6 16.2 76 270 0.3 0.8 1014 0.0000 0.0000
23:26 20.5 16.3 77 0 0.8 1014 0.0000 0.0000
23:37 20.5 16.5 78 0 0.8 1013.9 0.0000 0.0000
23:47 20.5 16.5 78 329 0.3 0.8 1013.7 0.0000 0.0000
23:57 20.3 16.5 79 45 0.3 1.1 1013.6 0.0000 0.0000

DAY STATISTIC

2019-06-18
TEMPERATURE
AVERAGE
22.2
HIGH
26.6
17:33
LOW
16.7
06:07
PRESSURE
AVERAGE
1016.7
HIGH
1019.5
00:09
LOW
1013.6
23:57
DEWPOINT
AVERAGE
16.5
HIGH
19.2
19:13
LOW
14.3
06:07
HUMIDITY
AVERAGE
71
HIGH
89
07:18
LOW
58
11:05
WIND SPEED
AVERAGE
0.2
HIGH
0.8
12:15
WIND GUST
AVERAGE
1.0
HIGH
2.8
14:12
WIND DIRECTION
PREVAILING
SW
30.7%
N
2.9
NE
8.6
E
0.7
SE
0.7
S
2.1
SW
30.7
W
22.9
NW
5.7
PRECIPITATION
RAIN HOUR
0.0
RAIN DAY
0.0
TEMPERATURE (°C)
LOW
16.7
HIGH
26.6
AVERAGE
22.2
PRESSURE (hpa)
LOW
1013.6
HIGH
1019.5
AVERAGE
1016.7
DEVICE